createdAt,value
2019-05-10T00:01:13.539Z,94853.00
2019-05-10T00:04:03.334Z,94861.00
2019-05-10T00:06:53.317Z,94864.00
2019-05-10T00:09:24.474Z,94869.00
2019-05-10T00:12:04.010Z,94860.00
2019-05-10T00:15:01.501Z,94871.00
2019-05-10T00:17:34.344Z,94874.00
2019-05-10T00:20:06.641Z,94873.00
2019-05-10T00:22:38.502Z,94876.00
2019-05-10T00:25:10.386Z,94874.00
2019-05-10T00:27:42.538Z,94871.00
2019-05-10T00:30:14.422Z,94866.00
2019-05-10T00:32:46.343Z,94867.00
2019-05-10T00:35:18.313Z,94871.00
2019-05-10T00:37:50.260Z,94872.00
2019-05-10T00:40:22.126Z,94879.00
2019-05-10T00:42:54.003Z,94876.00
2019-05-10T00:45:26.224Z,94880.00
2019-05-10T00:47:58.141Z,94881.00
2019-05-10T00:50:30.272Z,94881.00
2019-05-10T00:53:02.248Z,94888.00
2019-05-10T00:55:34.407Z,94889.00
2019-05-10T00:58:06.953Z,94891.00
2019-05-10T01:00:38.913Z,94893.00
2019-05-10T01:03:11.421Z,94883.00
2019-05-10T01:05:43.585Z,94886.00
2019-05-10T01:08:15.682Z,94900.00
2019-05-10T01:10:47.558Z,94896.00
2019-05-10T01:13:19.766Z,94904.00
2019-05-10T01:15:52.196Z,94896.00
2019-05-10T01:18:24.399Z,94907.00
2019-05-10T01:20:56.648Z,94903.00
2019-05-10T01:23:28.552Z,94909.00
2019-05-10T01:26:00.741Z,94913.00
2019-05-10T01:28:32.935Z,94914.00
2019-05-10T01:31:04.870Z,94918.00
2019-05-10T01:33:36.887Z,94918.00
2019-05-10T01:36:08.763Z,94927.00
2019-05-10T01:38:41.024Z,94927.00
2019-05-10T01:41:13.169Z,94936.00
2019-05-10T01:43:45.306Z,94930.00
2019-05-10T01:46:17.479Z,94938.00
2019-05-10T01:48:49.376Z,94931.00
2019-05-10T01:51:21.214Z,94949.00
2019-05-10T01:53:53.516Z,94940.00
2019-05-10T01:56:25.474Z,94939.00
2019-05-10T01:58:57.639Z,94939.00
2019-05-10T02:01:30.237Z,94949.00
2019-05-10T02:04:02.397Z,94946.00
2019-05-10T02:06:34.667Z,94953.00
2019-05-10T02:09:08.144Z,94954.00
2019-05-10T02:11:40.591Z,94947.00
2019-05-10T02:14:12.444Z,94956.00
2019-05-10T02:16:44.744Z,94953.00
2019-05-10T02:19:17.261Z,94957.00
2019-05-10T02:21:49.372Z,94966.00
2019-05-10T02:24:21.604Z,94963.00
2019-05-10T02:26:53.559Z,94959.00
2019-05-10T02:29:25.428Z,94949.00
2019-05-10T02:31:57.862Z,94955.00
2019-05-10T02:34:29.787Z,94966.00
2019-05-10T02:37:02.019Z,94959.00
2019-05-10T02:39:34.694Z,94954.00
2019-05-10T02:42:06.850Z,94951.00
2019-05-10T02:44:38.788Z,94964.00
2019-05-10T02:47:10.885Z,94967.00
2019-05-10T02:49:43.443Z,94958.00
2019-05-10T02:52:15.306Z,94962.00
2019-05-10T02:54:47.603Z,94957.00
2019-05-10T02:57:19.998Z,94955.00
2019-05-10T02:59:52.412Z,94962.00
2019-05-10T03:02:24.847Z,94965.00
2019-05-10T03:04:57.070Z,94967.00
2019-05-10T03:07:28.928Z,94967.00
2019-05-10T03:10:02.786Z,94966.00
2019-05-10T03:12:35.098Z,94969.00
2019-05-10T03:15:07.535Z,94968.00
2019-05-10T03:17:41.417Z,94969.00
2019-05-10T03:20:14.110Z,94977.00
2019-05-10T03:22:48.054Z,94978.00
2019-05-10T03:25:23.496Z,94974.00
2019-05-10T03:27:56.434Z,94967.00
2019-05-10T03:30:28.887Z,94978.00
2019-05-10T03:33:00.768Z,94989.00
2019-05-10T03:35:32.903Z,94986.00
2019-05-10T03:38:04.906Z,94993.00
2019-05-10T03:40:36.901Z,94995.00
2019-05-10T03:43:08.794Z,95002.00
2019-05-10T03:45:40.923Z,95001.00
2019-05-10T03:48:13.550Z,94996.00
2019-05-10T03:50:45.424Z,94990.00
2019-05-10T03:53:17.722Z,95002.00
2019-05-10T03:55:50.381Z,95000.00
2019-05-10T03:58:22.263Z,95001.00
2019-05-10T04:00:54.538Z,94995.00
2019-05-10T04:03:27.482Z,95010.00
2019-05-10T04:05:59.983Z,95011.00
2019-05-10T04:08:31.813Z,95002.00
2019-05-10T04:11:04.079Z,94994.00
2019-05-10T04:13:36.535Z,95007.00
2019-05-10T04:16:08.423Z,94998.00
2019-05-10T04:18:40.360Z,94995.00
2019-05-10T04:21:12.226Z,95004.00
2019-05-10T04:23:44.102Z,95004.00
2019-05-10T04:26:15.997Z,95011.00
2019-05-10T04:28:48.425Z,95006.00
2019-05-10T04:31:20.368Z,95005.00
2019-05-10T04:33:52.761Z,95009.00
2019-05-10T04:36:24.871Z,95006.00
2019-05-10T04:38:57.398Z,95020.00
2019-05-10T04:41:29.271Z,95012.00
2019-05-10T04:44:01.653Z,95014.00
2019-05-10T04:46:36.963Z,95015.00
2019-05-10T04:49:10.391Z,95025.00
2019-05-10T04:51:42.362Z,95022.00
2019-05-10T04:54:14.571Z,95020.00
2019-05-10T04:56:46.902Z,95025.00
2019-05-10T04:59:19.058Z,95033.00
2019-05-10T05:01:50.910Z,95032.00
2019-05-10T05:04:23.119Z,95044.00
2019-05-10T05:06:55.845Z,95033.00
2019-05-10T05:09:27.991Z,95038.00
2019-05-10T05:11:59.842Z,95041.00
2019-05-10T05:14:32.085Z,95037.00
2019-05-10T05:17:04.438Z,95056.00
2019-05-10T05:19:36.620Z,95049.00
2019-05-10T05:22:08.853Z,95047.00
2019-05-10T05:24:40.979Z,95042.00
2019-05-10T05:27:12.870Z,95052.00
2019-05-10T05:29:45.261Z,95044.00
2019-05-10T05:32:17.530Z,95050.00
2019-05-10T05:34:49.678Z,95045.00
2019-05-10T05:37:22.496Z,95047.00
2019-05-10T05:39:54.624Z,95054.00
2019-05-10T05:42:27.989Z,95050.00
2019-05-10T05:45:01.254Z,95053.00
2019-05-10T05:47:37.575Z,95053.00
2019-05-10T05:50:07.707Z,95063.00
2019-05-10T05:52:40.296Z,95076.00
2019-05-10T05:55:12.786Z,95085.00
2019-05-10T05:57:44.821Z,95078.00
2019-05-10T06:00:16.724Z,95067.00
2019-05-10T06:02:49.968Z,95065.00
2019-05-10T06:05:33.996Z,95059.00
2019-05-10T06:07:59.693Z,95063.00
2019-05-10T06:10:32.548Z,95062.00
2019-05-10T06:13:04.890Z,95061.00
2019-05-10T06:15:37.238Z,95069.00
2019-05-10T06:18:12.101Z,95069.00
2019-05-10T06:20:44.453Z,95072.00
2019-05-10T06:23:16.655Z,95082.00
2019-05-10T06:25:49.630Z,95095.00
2019-05-10T06:28:27.060Z,95089.00
2019-05-10T06:30:56.304Z,95098.00
2019-05-10T06:33:29.754Z,95100.00
2019-05-10T06:36:01.634Z,95098.00
2019-05-10T06:38:34.089Z,95096.00
2019-05-10T06:41:10.144Z,95104.00
2019-05-10T06:43:39.839Z,95105.00
2019-05-10T06:46:11.742Z,95109.00
2019-05-10T06:48:44.342Z,95112.00
2019-05-10T06:51:16.524Z,95118.00
2019-05-10T06:53:52.538Z,95127.00
2019-05-10T06:56:22.695Z,95124.00
2019-05-10T06:58:55.474Z,95125.00
2019-05-10T07:01:27.743Z,95127.00
2019-05-10T07:03:59.889Z,95125.00
2019-05-10T07:06:32.494Z,95114.00
2019-05-10T07:09:06.278Z,95118.00
2019-05-10T07:11:38.541Z,95126.00
2019-05-10T07:14:10.693Z,95126.00
2019-05-10T07:16:43.001Z,95127.00
2019-05-10T07:19:14.936Z,95132.00
2019-05-10T07:21:51.042Z,95132.00
2019-05-10T07:24:25.313Z,95137.00
2019-05-10T07:26:56.531Z,95139.00
2019-05-10T07:29:30.617Z,95134.00
2019-05-10T07:32:03.589Z,95136.00
2019-05-10T07:34:36.089Z,95141.00
2019-05-10T07:37:07.945Z,95137.00
2019-05-10T07:39:40.582Z,95147.00
2019-05-10T07:42:12.746Z,95144.00
2019-05-10T07:44:46.883Z,95152.00
2019-05-10T07:47:23.915Z,95155.00
2019-05-10T07:49:53.468Z,95150.00
2019-05-10T07:52:26.060Z,95155.00
2019-05-10T07:54:58.232Z,95161.00
2019-05-10T07:57:30.124Z,95159.00
2019-05-10T08:00:05.763Z,95163.00
2019-05-10T08:02:37.462Z,95167.00
2019-05-10T08:05:13.725Z,95162.00
2019-05-10T08:07:43.770Z,95175.00
2019-05-10T08:10:16.168Z,95166.00
2019-05-10T08:12:48.699Z,95158.00
2019-05-10T08:15:24.650Z,95161.00
2019-05-10T08:17:58.376Z,95169.00
2019-05-10T08:20:43.682Z,95168.00
2019-05-10T08:23:03.814Z,95163.00
2019-05-10T08:25:40.871Z,95166.00
2019-05-10T08:28:12.723Z,95168.00
2019-05-10T08:30:58.541Z,95158.00
2019-05-10T08:33:20.009Z,95169.00
2019-05-10T08:36:00.351Z,95167.00
2019-05-10T08:38:25.482Z,95162.00
2019-05-10T08:40:57.458Z,95168.00
2019-05-10T08:43:38.458Z,95167.00
2019-05-10T08:46:03.964Z,95163.00
2019-05-10T08:48:38.105Z,95163.00
2019-05-10T08:51:09.960Z,95174.00
2019-05-10T08:53:47.239Z,95163.00
2019-05-10T08:56:21.583Z,95171.00
2019-05-10T08:58:53.665Z,95171.00
2019-05-10T09:01:30.226Z,95169.00
2019-05-10T09:04:06.471Z,95171.00
2019-05-10T09:06:33.700Z,95181.00
2019-05-10T09:09:08.427Z,95188.00
2019-05-10T09:11:44.015Z,95185.00
2019-05-10T09:14:20.030Z,95186.00
2019-05-10T09:16:57.598Z,95194.00
2019-05-10T09:19:28.225Z,95204.00
2019-05-10T09:21:57.295Z,95202.00
2019-05-10T09:24:29.451Z,95214.00
2019-05-10T09:27:02.004Z,95209.00
2019-05-10T09:29:37.300Z,95209.00
2019-05-10T09:32:08.515Z,95195.00
2019-05-10T09:34:42.657Z,95198.00
2019-05-10T09:37:17.717Z,95191.00
2019-05-10T09:39:55.333Z,95196.00
2019-05-10T09:42:30.662Z,95192.00
2019-05-10T09:44:58.058Z,95198.00
2019-05-10T09:47:32.854Z,95202.00
2019-05-10T09:50:04.654Z,95201.00
2019-05-10T09:52:36.679Z,95188.00
2019-05-10T09:55:14.483Z,95189.00
2019-05-10T09:57:43.767Z,95186.00
2019-05-10T10:00:17.564Z,95186.00
2019-05-10T10:02:56.202Z,95183.00
2019-05-10T10:05:24.163Z,95180.00
2019-05-10T10:07:57.827Z,95183.00
2019-05-10T10:10:32.423Z,95185.00
2019-05-10T10:13:11.509Z,95190.00
2019-05-10T10:15:37.486Z,95192.00
2019-05-10T10:18:12.590Z,95188.00
2019-05-10T10:20:45.311Z,95190.00
2019-05-10T10:23:17.707Z,95194.00
2019-05-10T10:25:49.912Z,95188.00
2019-05-10T10:28:22.611Z,95181.00
2019-05-10T10:30:59.972Z,95189.00
2019-05-10T10:33:29.295Z,95188.00
2019-05-10T10:36:07.654Z,95184.00
2019-05-10T10:38:37.116Z,95185.00
2019-05-10T10:41:09.566Z,95183.00
2019-05-10T10:43:43.750Z,95207.00
2019-05-10T10:46:19.427Z,95192.00
2019-05-10T10:48:51.515Z,95204.00
2019-05-10T10:51:26.537Z,95205.00
2019-05-10T10:53:58.298Z,95210.00
2019-05-10T10:56:31.274Z,95209.00
2019-05-10T10:59:03.191Z,95208.00
2019-05-10T11:01:48.973Z,95207.00
2019-05-10T11:04:09.962Z,95208.00
2019-05-10T11:06:42.658Z,95201.00
2019-05-10T11:09:14.780Z,95196.00
2019-05-10T11:11:47.237Z,95207.00
2019-05-10T11:14:22.846Z,95205.00
2019-05-10T11:16:57.074Z,95205.00
2019-05-10T11:19:31.590Z,95194.00
2019-05-10T11:22:09.665Z,95206.00
2019-05-10T11:24:37.824Z,95203.00
2019-05-10T11:27:13.060Z,95195.00
2019-05-10T11:29:44.779Z,95185.00
2019-05-10T11:32:17.200Z,95195.00
2019-05-10T11:34:49.841Z,95194.00
2019-05-10T11:37:31.231Z,95194.00
2019-05-10T11:39:56.109Z,95186.00
2019-05-10T11:42:30.954Z,95195.00
2019-05-10T11:45:04.354Z,95190.00
2019-05-10T11:47:40.904Z,95198.00
2019-05-10T11:50:27.603Z,95206.00
2019-05-10T11:52:47.915Z,95210.00
2019-05-10T11:58:02.064Z,95205.00
2019-05-10T11:59:04.852Z,95213.00
2019-05-10T12:00:31.947Z,95211.00
2019-05-10T12:03:08.820Z,95212.00
2019-05-10T12:05:36.721Z,95203.00
2019-05-10T12:08:12.663Z,95203.00
2019-05-10T12:10:52.991Z,95195.00
2019-05-10T12:15:52.005Z,95197.00
2019-05-10T12:18:26.746Z,95194.00
2019-05-10T12:21:09.026Z,95204.00
2019-05-10T12:23:44.166Z,95198.00
2019-05-10T12:26:05.331Z,95197.00
2019-05-10T12:27:13.024Z,95202.00
2019-05-10T12:28:42.603Z,95198.00
2019-05-10T12:31:16.991Z,95214.00
2019-05-10T12:33:50.613Z,95212.00
2019-05-10T12:36:27.339Z,95203.00
2019-05-10T12:38:58.978Z,95218.00
2019-05-10T12:41:31.691Z,95214.00
2019-05-10T12:44:07.422Z,95219.00
2019-05-10T12:46:39.764Z,95220.00
2019-05-10T12:49:12.066Z,95226.00
2019-05-10T12:51:44.440Z,95239.00
2019-05-10T12:54:18.471Z,95239.00
2019-05-10T12:56:51.438Z,95256.00
2019-05-10T12:59:23.803Z,95255.00
2019-05-10T13:01:58.251Z,95266.00
2019-05-10T13:04:40.053Z,95263.00
2019-05-10T13:07:04.272Z,95259.00
2019-05-10T13:09:40.627Z,95270.00
2019-05-10T13:12:10.734Z,95268.00
2019-05-10T13:14:46.105Z,95261.00
2019-05-10T13:17:17.416Z,95257.00
2019-05-10T13:19:52.677Z,95264.00
2019-05-10T13:22:23.895Z,95261.00
2019-05-10T13:24:56.107Z,95255.00
2019-05-10T13:27:28.033Z,95248.00
2019-05-10T13:30:00.494Z,95253.00
2019-05-10T13:32:32.341Z,95236.00
2019-05-10T13:35:04.424Z,95237.00
2019-05-10T13:37:36.270Z,95225.00
2019-05-10T13:40:09.080Z,95225.00
2019-05-10T13:42:46.022Z,95236.00
2019-05-10T13:45:15.636Z,95232.00
2019-05-10T13:47:48.029Z,95237.00
2019-05-10T13:50:20.704Z,95233.00
2019-05-10T13:52:53.285Z,95238.00
2019-05-10T13:55:26.101Z,95239.00
2019-05-10T13:57:58.941Z,95243.00
2019-05-10T14:00:34.029Z,95245.00
2019-05-10T14:03:05.179Z,95240.00
2019-05-10T14:05:40.214Z,95250.00
2019-05-10T14:08:13.235Z,95243.00
2019-05-10T14:10:49.233Z,95246.00
2019-05-10T14:13:19.572Z,95240.00
2019-05-10T14:15:51.489Z,95237.00
2019-05-10T14:18:23.676Z,95249.00
2019-05-10T14:20:55.848Z,95240.00
2019-05-10T14:23:28.869Z,95252.00
2019-05-10T14:26:01.961Z,95249.00
2019-05-10T14:28:34.200Z,95246.00
2019-05-10T14:31:06.093Z,95246.00
2019-05-10T14:33:38.346Z,95244.00
2019-05-10T14:36:11.312Z,95238.00
2019-05-10T14:38:47.393Z,95237.00
2019-05-10T14:41:17.045Z,95243.00
2019-05-10T14:43:49.254Z,95249.00
2019-05-10T14:46:21.172Z,95237.00
2019-05-10T14:48:53.474Z,95245.00
2019-05-10T14:51:40.356Z,95253.00
2019-05-10T14:54:06.660Z,95239.00
2019-05-10T14:56:34.402Z,95248.00
2019-05-10T14:59:06.339Z,95244.00
2019-05-10T15:01:42.855Z,95246.00
2019-05-10T15:04:12.210Z,95244.00
2019-05-10T15:06:44.443Z,95243.00
2019-05-10T15:09:21.702Z,95247.00
2019-05-10T15:11:51.339Z,95244.00
2019-05-10T15:14:23.570Z,95247.00
2019-05-10T15:16:55.808Z,95257.00
2019-05-10T15:19:31.152Z,95261.00
2019-05-10T15:22:02.067Z,95277.00
2019-05-10T15:24:34.364Z,95270.00
2019-05-10T15:27:06.555Z,95266.00
2019-05-10T15:29:38.969Z,95267.00
2019-05-10T15:32:11.134Z,95271.00
2019-05-10T15:34:43.275Z,95267.00
2019-05-10T15:37:17.782Z,95270.00
2019-05-10T15:39:50.087Z,95273.00
2019-05-10T15:42:22.204Z,95270.00
2019-05-10T15:44:54.043Z,95275.00
2019-05-10T15:47:29.140Z,95282.00
2019-05-10T15:50:01.727Z,95286.00
2019-05-10T15:52:33.898Z,95281.00
2019-05-10T15:55:05.929Z,95285.00
2019-05-10T15:57:38.483Z,95284.00
2019-05-10T16:00:12.204Z,95277.00
2019-05-10T16:02:44.408Z,95287.00
2019-05-10T16:05:25.849Z,95278.00
2019-05-10T16:07:51.599Z,95294.00
2019-05-10T16:10:28.402Z,95291.00
2019-05-10T16:12:57.772Z,95295.00
2019-05-10T16:15:30.552Z,95286.00
2019-05-10T16:18:03.593Z,95293.00
2019-05-10T16:20:37.131Z,95283.00
2019-05-10T16:23:11.218Z,95283.00
2019-05-10T16:25:47.949Z,95285.00
2019-05-10T16:28:20.645Z,95280.00
2019-05-10T16:30:51.630Z,95279.00
2019-05-10T16:33:25.495Z,95279.00
2019-05-10T16:35:59.131Z,95275.00
2019-05-10T16:38:31.648Z,95274.00
2019-05-10T16:41:03.991Z,95283.00
2019-05-10T16:43:36.639Z,95286.00
2019-05-10T16:46:08.555Z,95279.00
2019-05-10T16:48:40.723Z,95279.00
2019-05-10T16:51:13.061Z,95280.00
2019-05-10T16:53:45.889Z,95277.00
2019-05-10T16:56:19.491Z,95281.00
2019-05-10T16:58:54.896Z,95284.00
2019-05-10T17:01:27.710Z,95281.00
2019-05-10T17:04:01.636Z,95285.00
2019-05-10T17:06:35.360Z,95284.00
2019-05-10T17:09:15.888Z,95288.00
2019-05-10T17:11:46.873Z,95298.00
2019-05-10T17:14:17.788Z,95298.00
2019-05-10T17:16:58.260Z,95300.00
2019-05-10T17:19:27.987Z,95288.00
2019-05-10T17:21:57.512Z,95289.00
2019-05-10T17:24:30.333Z,95287.00
2019-05-10T17:27:02.482Z,95290.00
2019-05-10T17:29:34.826Z,95301.00
2019-05-10T17:32:06.708Z,95301.00
2019-05-10T17:34:38.631Z,95306.00
2019-05-10T17:37:10.546Z,95311.00
2019-05-10T17:39:42.780Z,95309.00
2019-05-10T17:42:15.077Z,95313.00
2019-05-10T17:44:47.036Z,95310.00
2019-05-10T17:47:19.476Z,95310.00
2019-05-10T17:49:52.152Z,95306.00
2019-05-10T17:52:24.318Z,95314.00
2019-05-10T17:54:56.589Z,95316.00
2019-05-10T17:57:28.815Z,95315.00
2019-05-10T18:00:00.818Z,95324.00
2019-05-10T18:02:32.992Z,95318.00
2019-05-10T18:05:06.760Z,95318.00
2019-05-10T18:07:39.383Z,95320.00
2019-05-10T18:10:12.070Z,95326.00
2019-05-10T18:12:44.709Z,95317.00
2019-05-10T18:15:16.788Z,95318.00
2019-05-10T18:17:48.829Z,95327.00
2019-05-10T18:20:22.743Z,95328.00
2019-05-10T18:22:56.274Z,95329.00
2019-05-10T18:25:28.641Z,95323.00
2019-05-10T18:28:02.288Z,95323.00
2019-05-10T18:30:35.024Z,95314.00
2019-05-10T18:33:12.528Z,95319.00
2019-05-10T18:35:41.099Z,95325.00
2019-05-10T18:38:13.233Z,95321.00
2019-05-10T18:40:48.082Z,95324.00
2019-05-10T18:43:24.479Z,95316.00
2019-05-10T18:46:01.335Z,95319.00
2019-05-10T18:48:31.154Z,95322.00
2019-05-10T18:51:03.460Z,95325.00
2019-05-10T18:53:36.468Z,95326.00
2019-05-10T18:56:09.271Z,95324.00
2019-05-10T18:58:41.724Z,95322.00
2019-05-10T19:01:13.739Z,95317.00
2019-05-10T19:03:46.197Z,95325.00
2019-05-10T19:06:19.048Z,95320.00
2019-05-10T19:08:51.536Z,95324.00
2019-05-10T19:11:24.306Z,95328.00
2019-05-10T19:13:56.792Z,95323.00
2019-05-10T19:16:32.181Z,95322.00
2019-05-10T19:19:04.040Z,95339.00
2019-05-10T19:21:37.920Z,95332.00
2019-05-10T19:24:09.992Z,95337.00
2019-05-10T19:26:42.805Z,95332.00
2019-05-10T19:29:15.853Z,95338.00
2019-05-10T19:31:48.418Z,95338.00
2019-05-10T19:34:20.596Z,95329.00
2019-05-10T19:36:52.838Z,95325.00
2019-05-10T19:39:25.071Z,95328.00
2019-05-10T19:42:04.026Z,95329.00
2019-05-10T19:44:34.747Z,95332.00
2019-05-10T19:47:11.034Z,95338.00
2019-05-10T19:49:39.790Z,95330.00
2019-05-10T19:52:11.892Z,95328.00
2019-05-10T19:54:44.110Z,95325.00
2019-05-10T19:57:18.783Z,95330.00
2019-05-10T19:59:50.372Z,95322.00
2019-05-10T20:02:22.284Z,95327.00
2019-05-10T20:04:55.603Z,95341.00
2019-05-10T20:07:44.052Z,95339.00
2019-05-10T20:10:02.179Z,95354.00
2019-05-10T20:12:34.197Z,95352.00
2019-05-10T20:15:07.160Z,95344.00
2019-05-10T20:17:39.997Z,95353.00
2019-05-10T20:20:12.793Z,95345.00
2019-05-10T20:22:45.170Z,95348.00
2019-05-10T20:25:17.193Z,95338.00
2019-05-10T20:27:49.102Z,95359.00
2019-05-10T20:30:21.181Z,95357.00
2019-05-10T20:32:53.644Z,95355.00
2019-05-10T20:35:26.533Z,95353.00
2019-05-10T20:38:01.891Z,95358.00
2019-05-10T20:40:36.937Z,95349.00
2019-05-10T20:43:06.528Z,95347.00
2019-05-10T20:45:38.867Z,95345.00
2019-05-10T20:48:10.813Z,95355.00
2019-05-10T20:50:42.666Z,95380.00
2019-05-10T20:53:15.002Z,95364.00
2019-05-10T20:55:47.562Z,95368.00
2019-05-10T20:58:20.221Z,95369.00
2019-05-10T21:00:53.089Z,95363.00
2019-05-10T21:03:24.941Z,95362.00
2019-05-10T21:05:57.845Z,95353.00
2019-05-10T21:08:30.114Z,95348.00
2019-05-10T21:11:02.895Z,95350.00
2019-05-10T21:13:36.004Z,95351.00
2019-05-10T21:16:07.933Z,95345.00
2019-05-10T21:18:40.237Z,95340.00
2019-05-10T21:21:12.802Z,95350.00
2019-05-10T21:23:45.264Z,95349.00
2019-05-10T21:26:17.485Z,95337.00
2019-05-10T21:28:50.143Z,95328.00
2019-05-10T21:31:22.011Z,95326.00
2019-05-10T21:34:08.730Z,95330.00
2019-05-10T21:36:28.321Z,95341.00
2019-05-10T21:39:01.406Z,95339.00
2019-05-10T21:41:33.978Z,95345.00
2019-05-10T21:44:06.161Z,95341.00
2019-05-10T21:46:39.232Z,95343.00
2019-05-10T21:49:11.927Z,95345.00
2019-05-10T21:51:44.359Z,95338.00
2019-05-10T21:54:17.269Z,95330.00
2019-05-10T21:56:49.619Z,95330.00
2019-05-10T21:59:22.545Z,95325.00
2019-05-10T22:01:54.715Z,95333.00
2019-05-10T22:04:27.478Z,95332.00
2019-05-10T22:06:59.504Z,95310.00
2019-05-10T22:09:31.852Z,95304.00
2019-05-10T22:12:05.019Z,95309.00
2019-05-10T22:14:37.033Z,95309.00
2019-05-10T22:17:09.444Z,95307.00
2019-05-10T22:19:41.951Z,95307.00
2019-05-10T22:22:20.014Z,95314.00
2019-05-10T22:24:52.035Z,95316.00
2019-05-10T22:27:24.473Z,95311.00
2019-05-10T22:29:56.774Z,95299.00
2019-05-10T22:32:30.938Z,95300.00
2019-05-10T22:35:02.985Z,95294.00
2019-05-10T22:37:35.407Z,95288.00
2019-05-10T22:40:08.384Z,95296.00
2019-05-10T22:42:40.442Z,95293.00
2019-05-10T22:45:12.631Z,95284.00
2019-05-10T22:47:44.613Z,95288.00
2019-05-10T22:50:17.752Z,95286.00
2019-05-10T22:52:49.850Z,95285.00
2019-05-10T22:55:21.957Z,95272.00
2019-05-10T22:57:54.619Z,95274.00
2019-05-10T23:00:27.034Z,95272.00
2019-05-10T23:02:59.848Z,95266.00
2019-05-10T23:05:32.563Z,95275.00
2019-05-10T23:08:04.937Z,95286.00
2019-05-10T23:10:37.243Z,95294.00
2019-05-10T23:13:10.517Z,95280.00
2019-05-10T23:15:43.152Z,95277.00
2019-05-10T23:18:16.422Z,95270.00
2019-05-10T23:20:48.691Z,95257.00
2019-05-10T23:23:21.167Z,95262.00
2019-05-10T23:25:54.083Z,95268.00
2019-05-10T23:28:26.303Z,95252.00
2019-05-10T23:30:58.878Z,95264.00
2019-05-10T23:33:30.910Z,95274.00
2019-05-10T23:36:03.547Z,95274.00
2019-05-10T23:38:36.349Z,95255.00
2019-05-10T23:41:10.491Z,95243.00
2019-05-10T23:43:43.331Z,95249.00
2019-05-10T23:46:15.738Z,95258.00
2019-05-10T23:48:48.043Z,95259.00
2019-05-10T23:51:20.346Z,95257.00
2019-05-10T23:53:52.466Z,95244.00
2019-05-10T23:56:25.407Z,95259.00
2019-05-10T23:58:57.673Z,95247.00
